sensor_id;sensor_type;location;lat;lon;timestamp;pressure;altitude;pressure_sealevel;temperature;humidity
29383;BME280;16365;51.598;7.668;2022-07-22T00:00:48;101362.59;;;23.58;54.16
29383;BME280;16365;51.598;7.668;2022-07-22T00:03:15;101360.56;;;23.58;53.85
29383;BME280;16365;51.598;7.668;2022-07-22T00:05:42;101365.44;;;23.58;53.81
29383;BME280;16365;51.598;7.668;2022-07-22T00:08:08;101371.09;;;23.58;53.71
29383;BME280;16365;51.598;7.668;2022-07-22T00:10:35;101361.41;;;23.55;53.46
29383;BME280;16365;51.598;7.668;2022-07-22T00:13:02;101370.28;;;23.54;53.80
29383;BME280;16365;51.598;7.668;2022-07-22T00:15:28;101366.22;;;23.51;53.79
29383;BME280;16365;51.598;7.668;2022-07-22T00:17:55;101358.56;;;23.52;53.72
29383;BME280;16365;51.598;7.668;2022-07-22T00:20:22;101369.88;;;23.52;53.60
29383;BME280;16365;51.598;7.668;2022-07-22T00:22:48;101369.88;;;23.52;53.56
29383;BME280;16365;51.598;7.668;2022-07-22T00:25:15;101370.28;;;23.50;53.65
29383;BME280;16365;51.598;7.668;2022-07-22T00:27:41;101370.28;;;23.50;53.48
29383;BME280;16365;51.598;7.668;2022-07-22T00:30:08;101368.63;;;23.49;53.75
29383;BME280;16365;51.598;7.668;2022-07-22T00:32:35;101373.50;;;23.49;53.78
29383;BME280;16365;51.598;7.668;2022-07-22T00:35:03;101375.94;;;23.50;53.82
29383;BME280;16365;51.598;7.668;2022-07-22T00:37:30;101368.63;;;23.49;53.70
29383;BME280;16365;51.598;7.668;2022-07-22T00:39:56;101374.31;;;23.49;53.39
29383;BME280;16365;51.598;7.668;2022-07-22T00:42:23;101379.97;;;23.49;53.56
29383;BME280;16365;51.598;7.668;2022-07-22T00:44:50;101377.53;;;23.48;53.70
29383;BME280;16365;51.598;7.668;2022-07-22T00:47:17;101381.59;;;23.47;53.50
29383;BME280;16365;51.598;7.668;2022-07-22T00:49:44;101371.47;;;23.46;53.15
29383;BME280;16365;51.598;7.668;2022-07-22T00:52:11;101370.25;;;23.43;53.56
29383;BME280;16365;51.598;7.668;2022-07-22T00:54:38;101374.69;;;23.44;53.68
29383;BME280;16365;51.598;7.668;2022-07-22T00:57:05;101371.84;;;23.44;53.70
29383;BME280;16365;51.598;7.668;2022-07-22T00:59:31;101371.06;;;23.44;53.61
29383;BME280;16365;51.598;7.668;2022-07-22T01:01:58;101371.84;;;23.44;53.73
29383;BME280;16365;51.598;7.668;2022-07-22T01:04:25;101372.66;;;23.45;53.76
29383;BME280;16365;51.598;7.668;2022-07-22T01:06:52;101372.66;;;23.45;53.45
29383;BME280;16365;51.598;7.668;2022-07-22T01:09:19;101372.66;;;23.45;53.40
29383;BME280;16365;51.598;7.668;2022-07-22T01:11:45;101372.66;;;23.45;53.29
29383;BME280;16365;51.598;7.668;2022-07-22T01:14:13;101370.69;;;23.45;53.01
29383;BME280;16365;51.598;7.668;2022-07-22T01:16:39;101373.50;;;23.45;53.21
29383;BME280;16365;51.598;7.668;2022-07-22T01:19:10;101373.50;;;23.45;53.01
29383;BME280;16365;51.598;7.668;2022-07-22T01:21:37;101373.06;;;23.43;53.31
29383;BME280;16365;51.598;7.668;2022-07-22T01:24:05;101377.53;;;23.44;53.35
29383;BME280;16365;51.598;7.668;2022-07-22T01:26:31;101370.69;;;23.45;53.40
29383;BME280;16365;51.598;7.668;2022-07-22T01:28:59;101369.47;;;23.46;53.14
29383;BME280;16365;51.598;7.668;2022-07-22T01:31:27;101369.03;;;23.48;52.88
29383;BME280;16365;51.598;7.668;2022-07-22T01:33:54;101371.88;;;23.48;52.85
29383;BME280;16365;51.598;7.668;2022-07-22T01:36:21;101371.47;;;23.46;53.00
29383;BME280;16365;51.598;7.668;2022-07-22T01:38:48;101377.53;;;23.44;53.04
29383;BME280;16365;51.598;7.668;2022-07-22T01:41:14;101369.44;;;23.43;52.84
29383;BME280;16365;51.598;7.668;2022-07-22T01:43:41;101379.16;;;23.42;52.82
29383;BME280;16365;51.598;7.668;2022-07-22T01:46:08;101378.72;;;23.40;53.03
29383;BME280;16365;51.598;7.668;2022-07-22T01:48:34;101374.28;;;23.39;53.20
29383;BME280;16365;51.598;7.668;2022-07-22T01:51:01;101378.31;;;23.38;52.95
29383;BME280;16365;51.598;7.668;2022-07-22T01:53:28;101380.34;;;23.37;52.60
29383;BME280;16365;51.598;7.668;2022-07-22T01:55:54;101379.13;;;23.34;52.61
29383;BME280;16365;51.598;7.668;2022-07-22T01:58:21;101382.34;;;23.33;52.84
29383;BME280;16365;51.598;7.668;2022-07-22T02:00:48;101384.78;;;23.31;52.77
29383;BME280;16365;51.598;7.668;2022-07-22T02:03:15;101389.19;;;23.28;52.37
29383;BME280;16365;51.598;7.668;2022-07-22T02:05:41;101386.34;;;23.25;52.70
29383;BME280;16365;51.598;7.668;2022-07-22T02:08:09;101384.34;;;23.22;52.65
29383;BME280;16365;51.598;7.668;2022-07-22T02:10:37;101379.06;;;23.20;52.63
29383;BME280;16365;51.598;7.668;2022-07-22T02:13:04;101379.06;;;23.20;52.67
29383;BME280;16365;51.598;7.668;2022-07-22T02:15:33;101372.59;;;23.20;52.76
29383;BME280;16365;51.598;7.668;2022-07-22T02:18:00;101378.66;;;23.18;52.84
29383;BME280;16365;51.598;7.668;2022-07-22T02:20:27;101375.84;;;23.18;52.56
29383;BME280;16365;51.598;7.668;2022-07-22T02:22:53;101380.28;;;23.19;52.70
29383;BME280;16365;51.598;7.668;2022-07-22T02:25:20;101371.78;;;23.19;52.64
29383;BME280;16365;51.598;7.668;2022-07-22T02:27:46;101377.44;;;23.19;52.44
29383;BME280;16365;51.598;7.668;2022-07-22T02:30:13;101385.94;;;23.19;52.46
29383;BME280;16365;51.598;7.668;2022-07-22T02:32:40;101382.28;;;23.19;52.42
29383;BME280;16365;51.598;7.668;2022-07-22T02:35:07;101377.84;;;23.18;52.45
29383;BME280;16365;51.598;7.668;2022-07-22T02:37:33;101382.72;;;23.17;52.35
29383;BME280;16365;51.598;7.668;2022-07-22T02:40:00;101377.44;;;23.16;52.42
29383;BME280;16365;51.598;7.668;2022-07-22T02:42:27;101375.00;;;23.14;52.40
29383;BME280;16365;51.598;7.668;2022-07-22T02:44:53;101375.81;;;23.15;52.50
29383;BME280;16365;51.598;7.668;2022-07-22T02:47:20;101376.22;;;23.13;52.42
29383;BME280;16365;51.598;7.668;2022-07-22T02:49:47;101377.84;;;23.14;52.54
29383;BME280;16365;51.598;7.668;2022-07-22T02:52:13;101372.59;;;23.13;52.71
29383;BME280;16365;51.598;7.668;2022-07-22T02:54:40;101368.53;;;23.14;52.59
29383;BME280;16365;51.598;7.668;2022-07-22T02:57:06;101373.41;;;23.13;52.11
29383;BME280;16365;51.598;7.668;2022-07-22T02:59:33;101372.59;;;23.13;52.29
29383;BME280;16365;51.598;7.668;2022-07-22T03:01:59;101370.97;;;23.12;52.62
29383;BME280;16365;51.598;7.668;2022-07-22T03:04:26;101377.44;;;23.12;52.69
29383;BME280;16365;51.598;7.668;2022-07-22T03:06:53;101377.81;;;23.11;52.32
29383;BME280;16365;51.598;7.668;2022-07-22T03:09:19;101375.41;;;23.09;52.60
29383;BME280;16365;51.598;7.668;2022-07-22T03:11:46;101378.22;;;23.09;52.64
29383;BME280;16365;51.598;7.668;2022-07-22T03:14:13;101379.84;;;23.10;52.64
29383;BME280;16365;51.598;7.668;2022-07-22T03:16:39;101374.97;;;23.11;52.64
29383;BME280;16365;51.598;7.668;2022-07-22T03:19:06;101377.44;;;23.12;52.59
29383;BME280;16365;51.598;7.668;2022-07-22T03:21:33;101389.56;;;23.13;52.37
29383;BME280;16365;51.598;7.668;2022-07-22T03:24:00;101389.16;;;23.14;52.41
29383;BME280;16365;51.598;7.668;2022-07-22T03:26:26;101386.31;;;23.14;52.34
29383;BME280;16365;51.598;7.668;2022-07-22T03:28:53;101384.72;;;23.13;52.73
29383;BME280;16365;51.598;7.668;2022-07-22T03:31:20;101383.91;;;23.13;52.50
29383;BME280;16365;51.598;7.668;2022-07-22T03:33:47;101376.22;;;23.13;52.34
29383;BME280;16365;51.598;7.668;2022-07-22T03:36:13;101385.09;;;23.15;52.30
29383;BME280;16365;51.598;7.668;2022-07-22T03:38:40;101379.44;;;23.15;52.15
29383;BME280;16365;51.598;7.668;2022-07-22T03:41:07;101373.78;;;23.15;52.10
29383;BME280;16365;51.598;7.668;2022-07-22T03:43:33;101383.09;;;23.16;51.86
29383;BME280;16365;51.598;7.668;2022-07-22T03:46:00;101387.94;;;23.15;52.04
29383;BME280;16365;51.598;7.668;2022-07-22T03:48:26;101391.97;;;23.14;52.02
29383;BME280;16365;51.598;7.668;2022-07-22T03:50:53;101389.56;;;23.13;52.01
29383;BME280;16365;51.598;7.668;2022-07-22T03:53:20;101387.50;;;23.09;51.81
29383;BME280;16365;51.598;7.668;2022-07-22T03:55:47;101399.63;;;23.10;51.99
29383;BME280;16365;51.598;7.668;2022-07-22T03:58:16;101398.44;;;23.07;52.13
29383;BME280;16365;51.598;7.668;2022-07-22T04:00:44;101398.44;;;23.07;52.15
29383;BME280;16365;51.598;7.668;2022-07-22T04:03:11;101389.94;;;23.07;52.13
29383;BME280;16365;51.598;7.668;2022-07-22T04:05:37;101395.16;;;23.05;52.00
29383;BME280;16365;51.598;7.668;2022-07-22T04:08:04;101398.81;;;23.06;51.97
29383;BME280;16365;51.598;7.668;2022-07-22T04:10:31;101396.38;;;23.04;52.04
29383;BME280;16365;51.598;7.668;2022-07-22T04:12:57;101395.56;;;23.04;52.10
29383;BME280;16365;51.598;7.668;2022-07-22T04:15:24;101391.13;;;23.03;52.36
29383;BME280;16365;51.598;7.668;2022-07-22T04:17:51;101394.78;;;23.03;52.06
29383;BME280;16365;51.598;7.668;2022-07-22T04:20:17;101393.16;;;23.02;52.25
29383;BME280;16365;51.598;7.668;2022-07-22T04:22:44;101396.78;;;23.03;52.39
29383;BME280;16365;51.598;7.668;2022-07-22T04:25:11;101390.31;;;23.02;51.72
29383;BME280;16365;51.598;7.668;2022-07-22T04:27:37;101395.97;;;23.02;52.18
29383;BME280;16365;51.598;7.668;2022-07-22T04:30:04;101387.50;;;23.02;51.98
29383;BME280;16365;51.598;7.668;2022-07-22T04:32:31;101392.75;;;23.04;52.48
29383;BME280;16365;51.598;7.668;2022-07-22T04:34:57;101388.69;;;23.05;51.94
29383;BME280;16365;51.598;7.668;2022-07-22T04:37:24;101395.16;;;23.05;52.00
29383;BME280;16365;51.598;7.668;2022-07-22T04:39:51;101393.56;;;23.04;51.91
29383;BME280;16365;51.598;7.668;2022-07-22T04:42:17;101384.66;;;23.06;52.27
29383;BME280;16365;51.598;7.668;2022-07-22T04:44:44;101383.84;;;23.05;52.30
29383;BME280;16365;51.598;7.668;2022-07-22T04:47:11;101386.69;;;23.05;52.25
29383;BME280;16365;51.598;7.668;2022-07-22T04:49:39;101387.91;;;23.08;52.22
29383;BME280;16365;51.598;7.668;2022-07-22T04:52:06;101385.13;;;23.12;51.77
29383;BME280;16365;51.598;7.668;2022-07-22T04:54:35;101391.56;;;23.12;51.67
29383;BME280;16365;51.598;7.668;2022-07-22T04:57:02;101397.63;;;23.14;52.18
29383;BME280;16365;51.598;7.668;2022-07-22T04:59:29;101393.22;;;23.17;52.11
29383;BME280;16365;51.598;7.668;2022-07-22T05:01:55;101397.22;;;23.16;52.15
29383;BME280;16365;51.598;7.668;2022-07-22T05:04:22;101397.66;;;23.18;52.15
29383;BME280;16365;51.598;7.668;2022-07-22T05:06:48;101398.88;;;23.20;52.03
29383;BME280;16365;51.598;7.668;2022-07-22T05:09:15;101402.94;;;23.23;51.71
29383;BME280;16365;51.598;7.668;2022-07-22T05:11:42;101397.28;;;23.23;51.42
29383;BME280;16365;51.598;7.668;2022-07-22T05:14:08;101404.53;;;23.24;51.42
29383;BME280;16365;51.598;7.668;2022-07-22T05:16:36;101407.78;;;23.22;51.33
29383;BME280;16365;51.598;7.668;2022-07-22T05:19:05;101400.09;;;23.23;51.55
29383;BME280;16365;51.598;7.668;2022-07-22T05:21:32;101403.34;;;23.21;51.54
29383;BME280;16365;51.598;7.668;2022-07-22T05:23:59;101406.16;;;23.21;51.75
29383;BME280;16365;51.598;7.668;2022-07-22T05:26:26;101409.00;;;23.21;51.78
29383;BME280;16365;51.598;7.668;2022-07-22T05:28:55;101404.16;;;23.22;51.54
29383;BME280;16365;51.598;7.668;2022-07-22T05:31:23;101405.75;;;23.23;51.58
29383;BME280;16365;51.598;7.668;2022-07-22T05:33:49;101411.81;;;23.25;51.65
29383;BME280;16365;51.598;7.668;2022-07-22T05:36:16;101407.81;;;23.26;51.52
29383;BME280;16365;51.598;7.668;2022-07-22T05:38:43;101404.13;;;23.25;51.16
29383;BME280;16365;51.598;7.668;2022-07-22T05:41:09;101407.81;;;23.26;51.37
29383;BME280;16365;51.598;7.668;2022-07-22T05:43:36;101402.16;;;23.26;51.57
29383;BME280;16365;51.598;7.668;2022-07-22T05:46:03;101411.44;;;23.26;51.29
29383;BME280;16365;51.598;7.668;2022-07-22T05:48:29;101412.63;;;23.25;51.21
29383;BME280;16365;51.598;7.668;2022-07-22T05:50:56;101414.66;;;23.25;51.55
29383;BME280;16365;51.598;7.668;2022-07-22T05:53:22;101416.66;;;23.24;50.63
29383;BME280;16365;51.598;7.668;2022-07-22T05:55:49;101413.00;;;23.20;50.61
29383;BME280;16365;51.598;7.668;2022-07-22T05:58:16;101425.53;;;23.16;50.82
29383;BME280;16365;51.598;7.668;2022-07-22T06:00:42;101419.44;;;23.10;50.81
29383;BME280;16365;51.598;7.668;2022-07-22T06:03:09;101422.28;;;23.06;50.76
29383;BME280;16365;51.598;7.668;2022-07-22T06:05:43;101432.75;;;23.02;50.87
29383;BME280;16365;51.598;7.668;2022-07-22T06:08:10;101417.38;;;23.00;50.88
29383;BME280;16365;51.598;7.668;2022-07-22T06:10:36;101415.34;;;22.97;51.06
29383;BME280;16365;51.598;7.668;2022-07-22T06:13:03;101426.63;;;22.93;51.22
29383;BME280;16365;51.598;7.668;2022-07-22T06:15:29;101421.34;;;22.92;51.07
29383;BME280;16365;51.598;7.668;2022-07-22T06:17:56;101419.75;;;22.91;51.27
29383;BME280;16365;51.598;7.668;2022-07-22T06:20:22;101418.53;;;22.92;51.51
29383;BME280;16365;51.598;7.668;2022-07-22T06:22:49;101415.31;;;22.93;51.43
29383;BME280;16365;51.598;7.668;2022-07-22T06:25:16;101418.19;;;22.97;51.45
29383;BME280;16365;51.598;7.668;2022-07-22T06:28:02;101416.16;;;23.01;51.46
29383;BME280;16365;51.598;7.668;2022-07-22T06:30:29;101417.41;;;23.03;51.61
29383;BME280;16365;51.598;7.668;2022-07-22T06:32:56;101415.81;;;23.09;51.74
29383;BME280;16365;51.598;7.668;2022-07-22T06:35:23;101423.91;;;23.15;51.82
29383;BME280;16365;51.598;7.668;2022-07-22T06:37:52;101414.66;;;23.21;51.33
29383;BME280;16365;51.598;7.668;2022-07-22T06:40:30;101417.91;;;23.30;51.21
29383;BME280;16365;51.598;7.668;2022-07-22T06:42:57;101417.53;;;23.36;50.93
29383;BME280;16365;51.598;7.668;2022-07-22T06:45:24;101429.28;;;23.41;51.01
29383;BME280;16365;51.598;7.668;2022-07-22T06:47:50;101422.81;;;23.44;50.55
29383;BME280;16365;51.598;7.668;2022-07-22T06:50:17;101415.16;;;23.48;50.29
29383;BME280;16365;51.598;7.668;2022-07-22T06:52:43;101420.00;;;23.51;50.27
29383;BME280;16365;51.598;7.668;2022-07-22T06:55:10;101424.84;;;23.54;50.06
29383;BME280;16365;51.598;7.668;2022-07-22T06:57:37;101420.81;;;23.59;50.26
29383;BME280;16365;51.598;7.668;2022-07-22T07:00:05;101422.88;;;23.62;49.89
29383;BME280;16365;51.598;7.668;2022-07-22T07:02:33;101424.94;;;23.69;49.78
29383;BME280;16365;51.598;7.668;2022-07-22T07:05:00;101426.16;;;23.71;49.24
29383;BME280;16365;51.598;7.668;2022-07-22T07:07:27;101422.91;;;23.73;49.24
29383;BME280;16365;51.598;7.668;2022-07-22T07:09:54;101422.53;;;23.74;48.80
29383;BME280;16365;51.598;7.668;2022-07-22T07:12:21;101412.03;;;23.75;48.83
29383;BME280;16365;51.598;7.668;2022-07-22T07:14:47;101420.50;;;23.78;49.03
29383;BME280;16365;51.598;7.668;2022-07-22T07:17:34;101413.25;;;23.81;48.96
29383;BME280;16365;51.598;7.668;2022-07-22T07:20:01;101412.81;;;23.82;48.79
29383;BME280;16365;51.598;7.668;2022-07-22T07:22:28;101416.47;;;23.83;48.41
29383;BME280;16365;51.598;7.668;2022-07-22T07:24:54;101414.84;;;23.82;48.30
29383;BME280;16365;51.598;7.668;2022-07-22T07:27:23;101402.31;;;23.83;48.44
29383;BME280;16365;51.598;7.668;2022-07-22T07:29:50;101408.41;;;23.89;48.29
29383;BME280;16365;51.598;7.668;2022-07-22T07:32:17;101404.72;;;23.88;48.57
29383;BME280;16365;51.598;7.668;2022-07-22T07:34:43;101414.06;;;23.89;48.84
29383;BME280;16365;51.598;7.668;2022-07-22T07:37:10;101406.38;;;23.93;48.39
29383;BME280;16365;51.598;7.668;2022-07-22T07:39:38;101410.81;;;23.97;48.15
29383;BME280;16365;51.598;7.668;2022-07-22T07:42:05;101419.31;;;24.01;48.16
29383;BME280;16365;51.598;7.668;2022-07-22T07:44:31;101414.91;;;24.03;48.17
29383;BME280;16365;51.598;7.668;2022-07-22T07:46:58;101412.84;;;24.07;48.22
29383;BME280;16365;51.598;7.668;2022-07-22T07:49:25;101406.38;;;24.10;48.17
29383;BME280;16365;51.598;7.668;2022-07-22T07:51:51;101412.88;;;24.15;47.99
29383;BME280;16365;51.598;7.668;2022-07-22T07:54:21;101407.59;;;24.20;47.84
29383;BME280;16365;51.598;7.668;2022-07-22T07:56:48;101404.78;;;24.27;47.99
29383;BME280;16365;51.598;7.668;2022-07-22T07:59:17;101404.38;;;24.32;47.52
29383;BME280;16365;51.598;7.668;2022-07-22T08:01:54;101408.44;;;24.39;47.35
29383;BME280;16365;51.598;7.668;2022-07-22T08:04:25;101409.25;;;24.43;47.43
29383;BME280;16365;51.598;7.668;2022-07-22T08:07:05;101404.78;;;24.45;47.18
29383;BME280;16365;51.598;7.668;2022-07-22T08:09:33;101405.97;;;24.51;47.07
29383;BME280;16365;51.598;7.668;2022-07-22T08:12:02;101404.75;;;24.56;46.82
29383;BME280;16365;51.598;7.668;2022-07-22T08:14:30;101408.41;;;24.60;46.97
29383;BME280;16365;51.598;7.668;2022-07-22T08:16:57;101408.81;;;24.62;46.85
29383;BME280;16365;51.598;7.668;2022-07-22T08:19:24;101403.53;;;24.64;46.58
29383;BME280;16365;51.598;7.668;2022-07-22T08:21:51;101399.09;;;24.67;46.20
29383;BME280;16365;51.598;7.668;2022-07-22T08:24:17;101402.72;;;24.67;46.46
29383;BME280;16365;51.598;7.668;2022-07-22T08:26:44;101401.50;;;24.68;46.43
29383;BME280;16365;51.598;7.668;2022-07-22T08:29:11;101405.56;;;24.67;46.23
29383;BME280;16365;51.598;7.668;2022-07-22T08:31:37;101401.94;;;24.67;46.13
29383;BME280;16365;51.598;7.668;2022-07-22T08:34:05;101395.84;;;24.65;45.83
29383;BME280;16365;51.598;7.668;2022-07-22T08:36:31;101400.69;;;24.64;46.11
29383;BME280;16365;51.598;7.668;2022-07-22T08:38:58;101398.28;;;24.63;45.57
29383;BME280;16365;51.598;7.668;2022-07-22T08:41:26;101401.13;;;24.63;45.33
29383;BME280;16365;51.598;7.668;2022-07-22T08:43:53;101403.53;;;24.60;45.24
29383;BME280;16365;51.598;7.668;2022-07-22T08:46:20;101408.00;;;24.61;45.40
29383;BME280;16365;51.598;7.668;2022-07-22T08:48:47;101413.69;;;24.58;45.32
29383;BME280;16365;51.598;7.668;2022-07-22T08:51:15;101403.13;;;24.55;45.45
29383;BME280;16365;51.598;7.668;2022-07-22T08:53:41;101404.78;;;24.52;45.40
29383;BME280;16365;51.598;7.668;2022-07-22T08:56:12;101405.59;;;24.49;45.26
29383;BME280;16365;51.598;7.668;2022-07-22T08:58:39;101401.53;;;24.50;45.92
29383;BME280;16365;51.598;7.668;2022-07-22T09:01:08;101403.56;;;24.50;45.73
29383;BME280;16365;51.598;7.668;2022-07-22T09:03:50;101401.13;;;24.48;45.48
29383;BME280;16365;51.598;7.668;2022-07-22T09:06:23;101396.28;;;24.52;45.71
29383;BME280;16365;51.598;7.668;2022-07-22T09:08:58;101409.63;;;24.55;45.37
29383;BME280;16365;51.598;7.668;2022-07-22T09:11:27;101415.69;;;24.61;45.78
29383;BME280;16365;51.598;7.668;2022-07-22T09:13:55;101411.22;;;24.64;45.67
29383;BME280;16365;51.598;7.668;2022-07-22T09:16:43;101409.19;;;24.64;45.53
29383;BME280;16365;51.598;7.668;2022-07-22T09:19:11;101412.44;;;24.70;45.49
29383;BME280;16365;51.598;7.668;2022-07-22T09:21:42;101412.44;;;24.70;45.21
29383;BME280;16365;51.598;7.668;2022-07-22T09:24:32;101419.31;;;24.69;45.10
29383;BME280;16365;51.598;7.668;2022-07-22T09:27:00;101426.19;;;24.75;45.33
29383;BME280;16365;51.598;7.668;2022-07-22T09:29:28;101418.50;;;24.75;45.48
29383;BME280;16365;51.598;7.668;2022-07-22T09:32:03;101420.53;;;24.78;45.41
29383;BME280;16365;51.598;7.668;2022-07-22T09:34:31;101412.00;;;24.78;45.23
29383;BME280;16365;51.598;7.668;2022-07-22T09:37:01;101412.44;;;24.80;45.09
29383;BME280;16365;51.598;7.668;2022-07-22T09:39:29;101405.91;;;24.80;45.13
29383;BME280;16365;51.598;7.668;2022-07-22T09:41:59;101412.00;;;24.85;45.59
29383;BME280;16365;51.598;7.668;2022-07-22T09:44:27;101409.13;;;24.93;45.06
29383;BME280;16365;51.598;7.668;2022-07-22T09:46:54;101402.25;;;24.94;44.93
29383;BME280;16365;51.598;7.668;2022-07-22T09:49:35;101413.63;;;24.90;44.33
29383;BME280;16365;51.598;7.668;2022-07-22T09:52:03;101422.50;;;24.92;44.85
29383;BME280;16365;51.598;7.668;2022-07-22T09:54:30;101416.03;;;24.92;44.56
29383;BME280;16365;51.598;7.668;2022-07-22T09:56:56;101408.75;;;24.91;44.72
29383;BME280;16365;51.598;7.668;2022-07-22T09:59:23;101419.28;;;24.90;44.17
29383;BME280;16365;51.598;7.668;2022-07-22T10:01:54;101412.78;;;24.90;43.96
29383;BME280;16365;51.598;7.668;2022-07-22T10:04:21;101427.38;;;24.92;44.25
29383;BME280;16365;51.598;7.668;2022-07-22T10:06:51;101418.47;;;24.90;44.05
29383;BME280;16365;51.598;7.668;2022-07-22T10:09:20;101411.97;;;24.89;43.86
29383;BME280;16365;51.598;7.668;2022-07-22T10:11:47;101412.78;;;24.90;44.06
29383;BME280;16365;51.598;7.668;2022-07-22T10:14:17;101405.91;;;24.91;43.69
29383;BME280;16365;51.598;7.668;2022-07-22T10:16:48;101407.91;;;24.94;44.01
29383;BME280;16365;51.598;7.668;2022-07-22T10:19:15;101410.75;;;24.94;43.81
29383;BME280;16365;51.598;7.668;2022-07-22T10:21:42;101403.84;;;24.95;44.24
29383;BME280;16365;51.598;7.668;2022-07-22T10:26:52;101406.28;;;24.96;43.60
29383;BME280;16365;51.598;7.668;2022-07-22T10:32:22;101409.94;;;25.00;43.73
29383;BME280;16365;51.598;7.668;2022-07-22T10:45:38;101400.56;;;25.18;43.61
29383;BME280;16365;51.598;7.668;2022-07-22T10:48:17;101395.69;;;25.22;43.59
29383;BME280;16365;51.598;7.668;2022-07-22T10:50:47;101386.72;;;25.30;43.88
29383;BME280;16365;51.598;7.668;2022-07-22T10:53:22;101393.59;;;25.36;43.95
29383;BME280;16365;51.598;7.668;2022-07-22T10:56:45;101393.16;;;25.42;43.61
29383;BME280;16365;51.598;7.668;2022-07-22T11:01:30;101386.16;;;25.57;42.75
29383;BME280;16365;51.598;7.668;2022-07-22T11:06:44;101378.78;;;25.70;43.06
29383;BME280;16365;51.598;7.668;2022-07-22T11:09:13;101371.84;;;25.75;42.85
29383;BME280;16365;51.598;7.668;2022-07-22T11:11:51;101366.19;;;25.78;42.97
29383;BME280;16365;51.598;7.668;2022-07-22T11:14:33;101361.66;;;25.84;42.10
29383;BME280;16365;51.598;7.668;2022-07-22T11:17:10;101366.44;;;25.95;42.13
29383;BME280;16365;51.598;7.668;2022-07-22T11:19:37;101356.66;;;26.03;42.43
29383;BME280;16365;51.598;7.668;2022-07-22T11:22:07;101349.72;;;26.07;42.18
29383;BME280;16365;51.598;7.668;2022-07-22T11:24:35;101348.44;;;26.12;42.47
29383;BME280;16365;51.598;7.668;2022-07-22T11:27:03;101351.25;;;26.15;42.07
29383;BME280;16365;51.598;7.668;2022-07-22T11:29:32;101348.38;;;26.19;41.75
29383;BME280;16365;51.598;7.668;2022-07-22T11:32:05;101363.00;;;26.21;41.62
29383;BME280;16365;51.598;7.668;2022-07-22T11:34:32;101353.19;;;26.26;41.81
29383;BME280;16365;51.598;7.668;2022-07-22T11:36:59;101360.06;;;26.28;41.81
29383;BME280;16365;51.598;7.668;2022-07-22T11:39:29;101358.03;;;26.29;41.38
29383;BME280;16365;51.598;7.668;2022-07-22T11:41:57;101358.44;;;26.31;41.45
29383;BME280;16365;51.598;7.668;2022-07-22T11:44:26;101359.59;;;26.33;41.33
29383;BME280;16365;51.598;7.668;2022-07-22T11:46:53;101358.78;;;26.36;41.58
29383;BME280;16365;51.598;7.668;2022-07-22T11:49:27;101359.59;;;26.37;41.60
29383;BME280;16365;51.598;7.668;2022-07-22T11:51:54;101361.59;;;26.40;41.49
29383;BME280;16365;51.598;7.668;2022-07-22T11:54:21;101357.91;;;26.43;41.03
29383;BME280;16365;51.598;7.668;2022-07-22T11:56:48;101354.63;;;26.45;41.25
29383;BME280;16365;51.598;7.668;2022-07-22T11:59:20;101362.78;;;26.46;41.04
29383;BME280;16365;51.598;7.668;2022-07-22T12:01:49;101370.88;;;26.48;40.52
29383;BME280;16365;51.598;7.668;2022-07-22T12:04:19;101371.69;;;26.48;40.40
29383;BME280;16365;51.598;7.668;2022-07-22T12:06:46;101358.69;;;26.47;40.96
29383;BME280;16365;51.598;7.668;2022-07-22T12:09:20;101353.84;;;26.44;40.54
29383;BME280;16365;51.598;7.668;2022-07-22T12:11:50;101351.41;;;26.46;40.93
29383;BME280;16365;51.598;7.668;2022-07-22T12:14:22;101349.78;;;26.45;40.41
29383;BME280;16365;51.598;7.668;2022-07-22T12:17:06;101341.66;;;26.44;40.79
29383;BME280;16365;51.598;7.668;2022-07-22T12:19:35;101342.88;;;26.46;41.18
29383;BME280;16365;51.598;7.668;2022-07-22T12:27:07;101337.16;;;26.50;40.36
29383;BME280;16365;51.598;7.668;2022-07-22T12:32:26;101340.00;;;26.50;40.78
29383;BME280;16365;51.598;7.668;2022-07-22T12:37:22;101330.16;;;26.54;40.92
29383;BME280;16365;51.598;7.668;2022-07-22T12:42:18;101315.88;;;26.61;40.36
29383;BME280;16365;51.598;7.668;2022-07-22T12:47:50;101316.25;;;26.63;40.54
29383;BME280;16365;51.598;7.668;2022-07-22T12:52:47;101325.41;;;26.78;41.13
29383;BME280;16365;51.598;7.668;2022-07-22T12:55:42;101320.47;;;26.86;40.14
29383;BME280;16365;51.598;7.668;2022-07-22T12:58:10;101317.91;;;26.95;40.54
29383;BME280;16365;51.598;7.668;2022-07-22T13:00:42;101311.38;;;26.98;40.42
29383;BME280;16365;51.598;7.668;2022-07-22T13:03:09;101319.78;;;27.05;40.23
29383;BME280;16365;51.598;7.668;2022-07-22T13:05:36;101309.63;;;27.08;40.28
29383;BME280;16365;51.598;7.668;2022-07-22T13:08:04;101310.38;;;27.12;40.03
29383;BME280;16365;51.598;7.668;2022-07-22T13:10:35;101292.88;;;27.13;39.80
29383;BME280;16365;51.598;7.668;2022-07-22T13:13:02;101307.91;;;27.14;39.46
29383;BME280;16365;51.598;7.668;2022-07-22T13:15:28;101307.13;;;27.13;39.50
29383;BME280;16365;51.598;7.668;2022-07-22T13:17:55;101307.91;;;27.14;39.76
29383;BME280;16365;51.598;7.668;2022-07-22T13:20:22;101314.41;;;27.14;40.19
29383;BME280;16365;51.598;7.668;2022-07-22T13:22:49;101307.91;;;27.14;39.86
29383;BME280;16365;51.598;7.668;2022-07-22T13:25:16;101305.88;;;27.14;39.73
29383;BME280;16365;51.598;7.668;2022-07-22T13:27:43;101301.84;;;27.12;39.69
29383;BME280;16365;51.598;7.668;2022-07-22T13:30:10;101295.78;;;27.10;40.07
29383;BME280;16365;51.598;7.668;2022-07-22T13:32:38;101297.00;;;27.09;39.68
29383;BME280;16365;51.598;7.668;2022-07-22T13:35:15;101293.38;;;27.08;39.86